sensor_id;sensor_type;location;lat;lon;timestamp;pressure;altitude;pressure_sealevel;temperature;humidity
20455;BME280;10386;54.314;10.022;2023-04-16T00:01:48;102048.66;;;9.11;100.00
20455;BME280;10386;54.314;10.022;2023-04-16T00:04:15;102047.50;;;8.97;100.00
20455;BME280;10386;54.314;10.022;2023-04-16T00:06:42;102052.94;;;8.97;100.00
20455;BME280;10386;54.314;10.022;2023-04-16T00:09:09;102055.59;;;9.17;100.00
20455;BME280;10386;54.314;10.022;2023-04-16T00:11:36;102048.53;;;8.94;100.00
20455;BME280;10386;54.314;10.022;2023-04-16T00:14:03;102053.13;;;9.12;100.00
20455;BME280;10386;54.314;10.022;2023-04-16T00:16:30;102044.53;;;9.03;100.00
20455;BME280;10386;54.314;10.022;2023-04-16T00:18:57;102046.75;;;9.13;100.00
20455;BME280;10386;54.314;10.022;2023-04-16T00:21:24;102052.78;;;9.00;100.00
20455;BME280;10386;54.314;10.022;2023-04-16T00:23:52;102046.47;;;9.19;100.00
20455;BME280;10386;54.314;10.022;2023-04-16T00:26:19;102048.00;;;9.06;100.00
20455;BME280;10386;54.314;10.022;2023-04-16T00:28:45;102047.22;;;9.03;100.00
20455;BME280;10386;54.314;10.022;2023-04-16T00:31:12;102048.31;;;8.99;100.00
20455;BME280;10386;54.314;10.022;2023-04-16T00:33:39;102054.22;;;9.27;100.00
20455;BME280;10386;54.314;10.022;2023-04-16T00:36:06;102055.16;;;9.26;100.00
20455;BME280;10386;54.314;10.022;2023-04-16T00:38:33;102056.41;;;9.19;100.00
20455;BME280;10386;54.314;10.022;2023-04-16T00:41:00;102059.09;;;9.00;100.00
20455;BME280;10386;54.314;10.022;2023-04-16T00:43:27;102047.72;;;9.31;100.00
20455;BME280;10386;54.314;10.022;2023-04-16T00:45:55;102038.63;;;9.32;100.00
20455;BME280;10386;54.314;10.022;2023-04-16T00:48:22;102044.81;;;9.35;100.00
20455;BME280;10386;54.314;10.022;2023-04-16T00:50:49;102043.81;;;9.18;100.00
20455;BME280;10386;54.314;10.022;2023-04-16T00:53:16;102045.00;;;9.12;100.00
20455;BME280;10386;54.314;10.022;2023-04-16T00:55:43;102046.25;;;9.24;100.00
20455;BME280;10386;54.314;10.022;2023-04-16T00:58:10;102046.00;;;9.10;100.00
20455;BME280;10386;54.314;10.022;2023-04-16T01:00:37;102045.56;;;9.19;100.00
20455;BME280;10386;54.314;10.022;2023-04-16T01:03:03;102049.38;;;9.15;100.00
20455;BME280;10386;54.314;10.022;2023-04-16T01:05:31;102054.13;;;9.10;100.00
20455;BME280;10386;54.314;10.022;2023-04-16T01:07:58;102055.75;;;9.14;100.00
20455;BME280;10386;54.314;10.022;2023-04-16T01:10:26;102050.09;;;9.00;100.00
20455;BME280;10386;54.314;10.022;2023-04-16T01:12:53;102061.59;;;9.05;100.00
20455;BME280;10386;54.314;10.022;2023-04-16T01:15:20;102066.41;;;8.98;100.00
20455;BME280;10386;54.314;10.022;2023-04-16T01:17:47;102067.66;;;9.10;100.00
20455;BME280;10386;54.314;10.022;2023-04-16T01:20:14;102069.09;;;9.18;100.00
20455;BME280;10386;54.314;10.022;2023-04-16T01:22:40;102073.78;;;8.95;100.00
20455;BME280;10386;54.314;10.022;2023-04-16T01:25:13;102080.69;;;8.82;100.00
20455;BME280;10386;54.314;10.022;2023-04-16T01:27:39;102084.28;;;8.82;100.00
20455;BME280;10386;54.314;10.022;2023-04-16T01:30:06;102081.78;;;8.78;100.00
20455;BME280;10386;54.314;10.022;2023-04-16T01:32:33;102087.53;;;8.70;100.00
20455;BME280;10386;54.314;10.022;2023-04-16T01:35:00;102088.19;;;8.75;100.00
20455;BME280;10386;54.314;10.022;2023-04-16T01:37:27;102083.72;;;8.74;100.00
20455;BME280;10386;54.314;10.022;2023-04-16T01:39:54;102086.97;;;8.82;100.00
20455;BME280;10386;54.314;10.022;2023-04-16T01:42:21;102079.41;;;9.10;100.00
20455;BME280;10386;54.314;10.022;2023-04-16T01:44:47;102071.19;;;9.12;100.00
20455;BME280;10386;54.314;10.022;2023-04-16T01:47:14;102082.31;;;9.06;100.00
20455;BME280;10386;54.314;10.022;2023-04-16T01:49:41;102084.53;;;8.76;100.00
20455;BME280;10386;54.314;10.022;2023-04-16T01:52:11;102082.31;;;8.86;100.00
20455;BME280;10386;54.314;10.022;2023-04-16T01:54:37;102088.69;;;8.65;100.00
20455;BME280;10386;54.314;10.022;2023-04-16T01:57:04;102082.38;;;8.64;100.00
20455;BME280;10386;54.314;10.022;2023-04-16T01:59:31;102082.47;;;8.63;100.00
20455;BME280;10386;54.314;10.022;2023-04-16T02:02:09;102082.47;;;8.63;100.00
20455;BME280;10386;54.314;10.022;2023-04-16T02:04:40;102076.81;;;8.67;100.00
20455;BME280;10386;54.314;10.022;2023-04-16T02:07:07;102078.41;;;8.73;100.00
20455;BME280;10386;54.314;10.022;2023-04-16T02:09:35;102072.44;;;8.85;100.00
20455;BME280;10386;54.314;10.022;2023-04-16T02:12:02;102070.81;;;9.01;100.00
20455;BME280;10386;54.314;10.022;2023-04-16T02:14:30;102067.41;;;8.96;100.00
20455;BME280;10386;54.314;10.022;2023-04-16T02:16:58;102070.25;;;9.13;100.00
20455;BME280;10386;54.314;10.022;2023-04-16T02:19:25;102068.28;;;9.16;100.00
20455;BME280;10386;54.314;10.022;2023-04-16T02:21:52;102071.69;;;9.01;100.00
20455;BME280;10386;54.314;10.022;2023-04-16T02:24:19;102070.75;;;9.21;100.00
20455;BME280;10386;54.314;10.022;2023-04-16T02:26:49;102065.38;;;9.01;100.00
20455;BME280;10386;54.314;10.022;2023-04-16T02:29:16;102061.03;;;9.17;100.00
20455;BME280;10386;54.314;10.022;2023-04-16T02:31:43;102071.13;;;9.13;100.00
20455;BME280;10386;54.314;10.022;2023-04-16T02:34:11;102064.25;;;9.06;100.00
20455;BME280;10386;54.314;10.022;2023-04-16T02:36:41;102066.28;;;9.01;100.00
20455;BME280;10386;54.314;10.022;2023-04-16T02:39:08;102067.56;;;8.93;100.00
20455;BME280;10386;54.314;10.022;2023-04-16T02:41:45;102065.09;;;9.07;100.00
20455;BME280;10386;54.314;10.022;2023-04-16T02:44:12;102072.78;;;8.97;100.00
20455;BME280;10386;54.314;10.022;2023-04-16T02:46:45;102069.38;;;8.92;100.00
20455;BME280;10386;54.314;10.022;2023-04-16T02:49:13;102072.69;;;8.99;100.00
20455;BME280;10386;54.314;10.022;2023-04-16T02:51:40;102068.09;;;8.81;100.00
20455;BME280;10386;54.314;10.022;2023-04-16T02:54:07;102071.97;;;8.95;100.00
20455;BME280;10386;54.314;10.022;2023-04-16T02:56:33;102079.81;;;8.81;100.00
20455;BME280;10386;54.314;10.022;2023-04-16T02:59:00;102070.00;;;8.79;100.00
20455;BME280;10386;54.314;10.022;2023-04-16T03:01:27;102086.38;;;8.76;100.00
20455;BME280;10386;54.314;10.022;2023-04-16T03:03:54;102082.88;;;8.74;100.00
20455;BME280;10386;54.314;10.022;2023-04-16T03:06:21;102085.00;;;9.06;100.00
20455;BME280;10386;54.314;10.022;2023-04-16T03:08:48;102091.88;;;9.14;100.00
20455;BME280;10386;54.314;10.022;2023-04-16T03:11:15;102091.63;;;9.19;100.00
20455;BME280;10386;54.314;10.022;2023-04-16T03:13:41;102088.63;;;9.25;100.00
20455;BME280;10386;54.314;10.022;2023-04-16T03:16:08;102096.38;;;9.14;100.00
20455;BME280;10386;54.314;10.022;2023-04-16T03:18:35;102088.19;;;9.15;100.00
20455;BME280;10386;54.314;10.022;2023-04-16T03:21:04;102094.22;;;9.02;100.00
20455;BME280;10386;54.314;10.022;2023-04-16T03:23:31;102090.97;;;9.14;100.00
20455;BME280;10386;54.314;10.022;2023-04-16T03:25:58;102083.66;;;9.16;100.00
20455;BME280;10386;54.314;10.022;2023-04-16T03:28:25;102085.97;;;9.05;100.00
20455;BME280;10386;54.314;10.022;2023-04-16T03:30:52;102087.13;;;8.99;100.00
20455;BME280;10386;54.314;10.022;2023-04-16T03:33:19;102090.13;;;8.93;100.00
20455;BME280;10386;54.314;10.022;2023-04-16T03:35:46;102095.31;;;8.98;100.00
20455;BME280;10386;54.314;10.022;2023-04-16T03:38:19;102098.44;;;8.89;100.00
20455;BME280;10386;54.314;10.022;2023-04-16T03:40:46;102093.56;;;8.77;100.00
20455;BME280;10386;54.314;10.022;2023-04-16T03:43:13;102095.72;;;8.69;100.00
20455;BME280;10386;54.314;10.022;2023-04-16T03:45:44;102099.50;;;8.65;100.00
20455;BME280;10386;54.314;10.022;2023-04-16T03:48:11;102107.56;;;8.66;100.00
20455;BME280;10386;54.314;10.022;2023-04-16T03:50:37;102101.28;;;8.66;100.00
20455;BME280;10386;54.314;10.022;2023-04-16T03:53:04;102106.59;;;8.67;100.00
20455;BME280;10386;54.314;10.022;2023-04-16T03:55:31;102110.34;;;8.65;100.00
20455;BME280;10386;54.314;10.022;2023-04-16T03:57:57;102104.94;;;8.65;100.00
20455;BME280;10386;54.314;10.022;2023-04-16T04:00:28;102106.81;;;8.63;100.00
20455;BME280;10386;54.314;10.022;2023-04-16T04:02:56;102109.44;;;8.64;100.00
20455;BME280;10386;54.314;10.022;2023-04-16T04:05:23;102100.47;;;8.64;100.00
20455;BME280;10386;54.314;10.022;2023-04-16T04:07:50;102105.06;;;8.62;100.00
20455;BME280;10386;54.314;10.022;2023-04-16T04:10:16;102103.91;;;8.67;100.00
20455;BME280;10386;54.314;10.022;2023-04-16T04:12:43;102104.66;;;8.71;100.00
20455;BME280;10386;54.314;10.022;2023-04-16T04:15:10;102105.59;;;8.70;100.00
20455;BME280;10386;54.314;10.022;2023-04-16T04:17:37;102102.75;;;8.73;100.00
20455;BME280;10386;54.314;10.022;2023-04-16T04:20:04;102103.22;;;8.82;100.00
20455;BME280;10386;54.314;10.022;2023-04-16T04:22:31;102104.16;;;8.81;100.00
20455;BME280;10386;54.314;10.022;2023-04-16T04:24:58;102100.34;;;8.87;100.00
20455;BME280;10386;54.314;10.022;2023-04-16T04:27:25;102110.75;;;8.96;100.00
20455;BME280;10386;54.314;10.022;2023-04-16T04:29:52;102109.81;;;8.97;100.00
20455;BME280;10386;54.314;10.022;2023-04-16T04:32:19;102106.56;;;8.89;100.00
20455;BME280;10386;54.314;10.022;2023-04-16T04:34:46;102104.53;;;8.94;100.00
20455;BME280;10386;54.314;10.022;2023-04-16T04:37:12;102103.28;;;9.21;100.00
20455;BME280;10386;54.314;10.022;2023-04-16T04:39:39;102100.38;;;9.25;100.00
20455;BME280;10386;54.314;10.022;2023-04-16T04:42:07;102100.44;;;9.24;100.00
20455;BME280;10386;54.314;10.022;2023-04-16T04:44:34;102088.47;;;9.48;100.00
20455;BME280;10386;54.314;10.022;2023-04-16T04:47:00;102095.97;;;9.23;100.00
20455;BME280;10386;54.314;10.022;2023-04-16T04:49:27;102098.47;;;9.27;100.00
20455;BME280;10386;54.314;10.022;2023-04-16T04:51:54;102094.34;;;9.39;100.00
20455;BME280;10386;54.314;10.022;2023-04-16T04:54:21;102098.81;;;9.40;100.00
20455;BME280;10386;54.314;10.022;2023-04-16T04:56:47;102101.22;;;9.46;100.00
20455;BME280;10386;54.314;10.022;2023-04-16T04:59:14;102095.00;;;9.24;100.00
20455;BME280;10386;54.314;10.022;2023-04-16T05:01:41;102102.66;;;9.34;100.00
20455;BME280;10386;54.314;10.022;2023-04-16T05:04:08;102105.13;;;9.20;100.00
20455;BME280;10386;54.314;10.022;2023-04-16T05:06:34;102108.56;;;9.24;100.00
20455;BME280;10386;54.314;10.022;2023-04-16T05:09:01;102123.16;;;9.21;100.00
20455;BME280;10386;54.314;10.022;2023-04-16T05:11:29;102114.50;;;9.52;100.00
20455;BME280;10386;54.314;10.022;2023-04-16T05:13:55;102127.09;;;9.33;100.00
20455;BME280;10386;54.314;10.022;2023-04-16T05:16:22;102125.63;;;9.26;100.00
20455;BME280;10386;54.314;10.022;2023-04-16T05:18:49;102120.63;;;9.37;100.00
20455;BME280;10386;54.314;10.022;2023-04-16T05:21:16;102131.00;;;9.27;100.00
20455;BME280;10386;54.314;10.022;2023-04-16T05:23:42;102137.63;;;9.20;100.00
20455;BME280;10386;54.314;10.022;2023-04-16T05:26:09;102134.56;;;9.28;100.00
20455;BME280;10386;54.314;10.022;2023-04-16T05:28:36;102127.47;;;9.25;100.00
20455;BME280;10386;54.314;10.022;2023-04-16T05:31:02;102140.63;;;9.14;100.00
20455;BME280;10386;54.314;10.022;2023-04-16T05:33:29;102133.16;;;9.19;100.00
20455;BME280;10386;54.314;10.022;2023-04-16T05:35:56;102138.72;;;9.36;100.00
20455;BME280;10386;54.314;10.022;2023-04-16T05:38:23;102151.72;;;9.28;100.00
20455;BME280;10386;54.314;10.022;2023-04-16T05:40:49;102156.06;;;9.32;100.00
20455;BME280;10386;54.314;10.022;2023-04-16T05:43:16;102146.88;;;9.35;100.00
20455;BME280;10386;54.314;10.022;2023-04-16T05:45:43;102157.72;;;9.35;100.00
20455;BME280;10386;54.314;10.022;2023-04-16T05:48:10;102151.41;;;9.36;100.00
20455;BME280;10386;54.314;10.022;2023-04-16T05:50:37;102155.59;;;9.61;100.00
20455;BME280;10386;54.314;10.022;2023-04-16T05:53:07;102153.63;;;9.64;100.00
20455;BME280;10386;54.314;10.022;2023-04-16T05:55:35;102148.06;;;9.67;100.00
20455;BME280;10386;54.314;10.022;2023-04-16T05:58:04;102155.59;;;9.61;100.00
20455;BME280;10386;54.314;10.022;2023-04-16T06:00:31;102154.25;;;9.89;100.00
20455;BME280;10386;54.314;10.022;2023-04-16T06:02:58;102144.84;;;9.96;100.00
20455;BME280;10386;54.314;10.022;2023-04-16T06:05:25;102156.41;;;10.01;100.00
20455;BME280;10386;54.314;10.022;2023-04-16T06:07:52;102163.94;;;10.13;100.00
20455;BME280;10386;54.314;10.022;2023-04-16T06:10:19;102171.03;;;9.97;100.00
20455;BME280;10386;54.314;10.022;2023-04-16T06:12:46;102170.16;;;9.97;100.00
20455;BME280;10386;54.314;10.022;2023-04-16T06:15:13;102178.59;;;9.91;100.00
20455;BME280;10386;54.314;10.022;2023-04-16T06:17:39;102179.97;;;9.99;100.00
20455;BME280;10386;54.314;10.022;2023-04-16T06:20:08;102192.97;;;9.93;100.00
20455;BME280;10386;54.314;10.022;2023-04-16T06:22:35;102187.50;;;9.74;100.00
20455;BME280;10386;54.314;10.022;2023-04-16T06:25:02;102192.78;;;9.77;100.00
20455;BME280;10386;54.314;10.022;2023-04-16T06:27:30;102197.13;;;9.81;100.00
20455;BME280;10386;54.314;10.022;2023-04-16T06:29:56;102202.84;;;9.75;100.00
20455;BME280;10386;54.314;10.022;2023-04-16T06:32:24;102199.34;;;9.92;100.00
20455;BME280;10386;54.314;10.022;2023-04-16T06:34:50;102207.03;;;9.82;100.00
20455;BME280;10386;54.314;10.022;2023-04-16T06:37:17;102211.50;;;9.83;100.00
20455;BME280;10386;54.314;10.022;2023-04-16T06:39:44;102213.31;;;10.03;100.00
20455;BME280;10386;54.314;10.022;2023-04-16T06:42:11;102205.63;;;9.92;100.00
20455;BME280;10386;54.314;10.022;2023-04-16T06:44:37;102208.00;;;10.00;100.00
20455;BME280;10386;54.314;10.022;2023-04-16T06:47:04;102203.34;;;10.40;100.00
20455;BME280;10386;54.314;10.022;2023-04-16T06:49:31;102208.88;;;10.20;100.00
20455;BME280;10386;54.314;10.022;2023-04-16T06:52:01;102215.97;;;10.41;100.00
20455;BME280;10386;54.314;10.022;2023-04-16T06:54:31;102230.28;;;10.26;100.00
20455;BME280;10386;54.314;10.022;2023-04-16T06:56:58;102227.47;;;10.09;100.00
20455;BME280;10386;54.314;10.022;2023-04-16T06:59:25;102234.91;;;10.24;100.00
20455;BME280;10386;54.314;10.022;2023-04-16T07:01:52;102234.44;;;10.15;100.00
20455;BME280;10386;54.314;10.022;2023-04-16T07:04:18;102234.75;;;10.09;100.00
20455;BME280;10386;54.314;10.022;2023-04-16T07:06:46;102234.47;;;9.95;100.00
20455;BME280;10386;54.314;10.022;2023-04-16T07:09:12;102237.50;;;10.07;100.00
20455;BME280;10386;54.314;10.022;2023-04-16T07:11:39;102240.25;;;10.26;100.00
20455;BME280;10386;54.314;10.022;2023-04-16T07:14:07;102241.91;;;10.47;100.00
20455;BME280;10386;54.314;10.022;2023-04-16T07:16:33;102244.88;;;10.42;100.00
20455;BME280;10386;54.314;10.022;2023-04-16T07:19:00;102238.34;;;10.46;100.00
20455;BME280;10386;54.314;10.022;2023-04-16T07:21:27;102240.22;;;10.63;100.00
20455;BME280;10386;54.314;10.022;2023-04-16T07:23:54;102249.50;;;10.40;100.00
20455;BME280;10386;54.314;10.022;2023-04-16T07:26:20;102249.88;;;10.51;100.00
20455;BME280;10386;54.314;10.022;2023-04-16T07:28:47;102262.19;;;10.40;100.00
20455;BME280;10386;54.314;10.022;2023-04-16T07:31:14;102260.72;;;10.51;100.00
20455;BME280;10386;54.314;10.022;2023-04-16T07:33:40;102256.25;;;10.69;100.00
20455;BME280;10386;54.314;10.022;2023-04-16T07:36:07;102259.81;;;10.69;100.00
20455;BME280;10386;54.314;10.022;2023-04-16T07:38:34;102265.56;;;10.63;100.00
20455;BME280;10386;54.314;10.022;2023-04-16T07:41:01;102278.38;;;10.60;100.00
20455;BME280;10386;54.314;10.022;2023-04-16T07:43:27;102280.53;;;10.53;100.00
20455;BME280;10386;54.314;10.022;2023-04-16T07:45:54;102286.63;;;10.40;100.00
20455;BME280;10386;54.314;10.022;2023-04-16T07:48:21;102283.91;;;10.58;100.00
20455;BME280;10386;54.314;10.022;2023-04-16T07:50:48;102286.91;;;10.52;100.00
20455;BME280;10386;54.314;10.022;2023-04-16T07:53:15;102291.16;;;10.58;100.00
20455;BME280;10386;54.314;10.022;2023-04-16T07:55:42;102289.53;;;10.54;100.00
20455;BME280;10386;54.314;10.022;2023-04-16T07:58:09;102290.81;;;10.65;100.00
20455;BME280;10386;54.314;10.022;2023-04-16T08:00:36;102298.44;;;10.57;100.00
20455;BME280;10386;54.314;10.022;2023-04-16T08:03:03;102299.84;;;10.66;100.00
20455;BME280;10386;54.314;10.022;2023-04-16T08:05:30;102301.50;;;10.50;100.00
20455;BME280;10386;54.314;10.022;2023-04-16T08:07:56;102307.09;;;10.65;100.00
20455;BME280;10386;54.314;10.022;2023-04-16T08:10:23;102311.22;;;10.74;100.00
20455;BME280;10386;54.314;10.022;2023-04-16T08:12:50;102303.44;;;10.85;100.00
20455;BME280;10386;54.314;10.022;2023-04-16T08:15:17;102318.13;;;10.62;100.00
20455;BME280;10386;54.314;10.022;2023-04-16T08:17:44;102321.84;;;10.60;100.00
20455;BME280;10386;54.314;10.022;2023-04-16T08:20:11;102329.94;;;10.61;100.00
20455;BME280;10386;54.314;10.022;2023-04-16T08:22:42;102336.03;;;10.66;100.00
20455;BME280;10386;54.314;10.022;2023-04-16T08:25:09;102346.38;;;10.58;100.00
20455;BME280;10386;54.314;10.022;2023-04-16T08:27:36;102341.47;;;10.66;100.00
20455;BME280;10386;54.314;10.022;2023-04-16T08:30:03;102347.75;;;10.48;100.00
20455;BME280;10386;54.314;10.022;2023-04-16T08:32:30;102351.00;;;10.56;100.00
20455;BME280;10386;54.314;10.022;2023-04-16T08:34:56;102346.56;;;10.54;100.00
20455;BME280;10386;54.314;10.022;2023-04-16T08:37:24;102353.56;;;10.59;100.00
20455;BME280;10386;54.314;10.022;2023-04-16T08:39:51;102355.34;;;10.60;100.00
20455;BME280;10386;54.314;10.022;2023-04-16T08:42:32;102368.72;;;10.45;100.00
20455;BME280;10386;54.314;10.022;2023-04-16T08:47:34;102375.19;;;10.42;100.00
20455;BME280;10386;54.314;10.022;2023-04-16T08:50:05;102372.63;;;10.39;100.00
20455;BME280;10386;54.314;10.022;2023-04-16T08:52:33;102381.59;;;10.41;100.00
20455;BME280;10386;54.314;10.022;2023-04-16T08:55:07;102380.38;;;10.28;100.00
20455;BME280;10386;54.314;10.022;2023-04-16T08:57:42;102391.38;;;10.25;100.00
20455;BME280;10386;54.314;10.022;2023-04-16T09:00:10;102382.81;;;10.14;100.00
20455;BME280;10386;54.314;10.022;2023-04-16T09:02:37;102395.25;;;10.20;100.00
20455;BME280;10386;54.314;10.022;2023-04-16T09:05:06;102399.31;;;10.30;100.00
20455;BME280;10386;54.314;10.022;2023-04-16T09:07:33;102397.28;;;10.15;100.00
20455;BME280;10386;54.314;10.022;2023-04-16T09:10:01;102398.06;;;10.37;100.00
20455;BME280;10386;54.314;10.022;2023-04-16T09:12:29;102409.44;;;10.26;100.00
20455;BME280;10386;54.314;10.022;2023-04-16T09:14:56;102411.88;;;10.32;100.00
20455;BME280;10386;54.314;10.022;2023-04-16T09:17:26;102405.66;;;10.49;100.00
20455;BME280;10386;54.314;10.022;2023-04-16T09:19:53;102405.63;;;10.30;100.00
20455;BME280;10386;54.314;10.022;2023-04-16T09:22:20;102411.03;;;10.50;100.00
20455;BME280;10386;54.314;10.022;2023-04-16T09:24:47;102412.22;;;10.63;100.00
20455;BME280;10386;54.314;10.022;2023-04-16T09:27:14;102410.50;;;10.61;100.00
20455;BME280;10386;54.314;10.022;2023-04-16T09:29:42;102416.13;;;10.76;100.00
20455;BME280;10386;54.314;10.022;2023-04-16T09:32:10;102419.75;;;10.77;100.00
20455;BME280;10386;54.314;10.022;2023-04-16T09:35:03;102410.84;;;10.73;100.00
20455;BME280;10386;54.314;10.022;2023-04-16T09:37:30;102404.31;;;10.77;100.00
20455;BME280;10386;54.314;10.022;2023-04-16T09:39:59;102403.63;;;10.72;100.00
20455;BME280;10386;54.314;10.022;2023-04-16T09:42:28;102405.06;;;10.81;100.00
20455;BME280;10386;54.314;10.022;2023-04-16T09:44:57;102402.53;;;10.76;100.00
20455;BME280;10386;54.314;10.022;2023-04-16T09:47:41;102409.66;;;10.97;100.00
20455;BME280;10386;54.314;10.022;2023-04-16T09:50:13;102412.97;;;10.85;100.00
20455;BME280;10386;54.314;10.022;2023-04-16T09:52:46;102419.88;;;10.92;100.00
20455;BME280;10386;54.314;10.022;2023-04-16T09:55:14;102418.47;;;11.02;100.00
20455;BME280;10386;54.314;10.022;2023-04-16T09:57:41;102415.69;;;10.85;100.00
20455;BME280;10386;54.314;10.022;2023-04-16T10:00:09;102421.63;;;10.93;100.00
20455;BME280;10386;54.314;10.022;2023-04-16T10:02:39;102432.97;;;11.02;100.00
20455;BME280;10386;54.314;10.022;2023-04-16T10:05:08;102432.47;;;10.95;100.00
20455;BME280;10386;54.314;10.022;2023-04-16T10:07:36;102434.13;;;10.79;100.00
20455;BME280;10386;54.314;10.022;2023-04-16T10:10:03;102446.25;;;10.90;100.00
20455;BME280;10386;54.314;10.022;2023-04-16T10:12:30;102442.81;;;10.87;100.00
20455;BME280;10386;54.314;10.022;2023-04-16T10:14:58;102444.13;;;10.97;100.00
20455;BME280;10386;54.314;10.022;2023-04-16T10:17:25;102447.47;;;10.83;100.00
20455;BME280;10386;54.314;10.022;2023-04-16T10:19:57;102449.78;;;10.92;100.00
20455;BME280;10386;54.314;10.022;2023-04-16T10:22:24;102451.50;;;11.13;100.00
20455;BME280;10386;54.314;10.022;2023-04-16T10:24:52;102453.91;;;11.00;100.00
20455;BME280;10386;54.314;10.022;2023-04-16T10:27:20;102452.44;;;11.12;100.00
20455;BME280;10386;54.314;10.022;2023-04-16T10:29:47;102458.09;;;11.07;100.00
20455;BME280;10386;54.314;10.022;2023-04-16T10:32:16;102464.84;;;11.17;100.00
20455;BME280;10386;54.314;10.022;2023-04-16T10:34:43;102461.41;;;10.96;100.00
20455;BME280;10386;54.314;10.022;2023-04-16T10:37:10;102468.22;;;11.04;100.00
20455;BME280;10386;54.314;10.022;2023-04-16T10:39:38;102465.88;;;10.97;100.00
20455;BME280;10386;54.314;10.022;2023-04-16T10:42:09;102469.50;;;10.77;100.00
20455;BME280;10386;54.314;10.022;2023-04-16T10:44:40;102476.13;;;10.90;100.00
20455;BME280;10386;54.314;10.022;2023-04-16T10:47:11;102474.06;;;10.95;100.00
20455;BME280;10386;54.314;10.022;2023-04-16T10:49:39;102479.53;;;10.95;100.00
20455;BME280;10386;54.314;10.022;2023-04-16T10:52:14;102482.59;;;10.88;100.00
20455;BME280;10386;54.314;10.022;2023-04-16T10:54:45;102480.63;;;10.91;100.00
20455;BME280;10386;54.314;10.022;2023-04-16T10:57:16;102485.22;;;10.71;100.00
20455;BME280;10386;54.314;10.022;2023-04-16T10:59:45;102499.69;;;10.31;100.00
20455;BME280;10386;54.314;10.022;2023-04-16T11:02:15;102507.16;;;10.26;100.00
20455;BME280;10386;54.314;10.022;2023-04-16T11:04:47;102510.31;;;10.16;100.00
20455;BME280;10386;54.314;10.022;2023-04-16T11:07:31;102506.97;;;10.09;100.00
20455;BME280;10386;54.314;10.022;2023-04-16T11:10:05;102515.94;;;10.11;100.00
20455;BME280;10386;54.314;10.022;2023-04-16T11:12:40;102516.41;;;10.01;100.00
20455;BME280;10386;54.314;10.022;2023-04-16T11:15:10;102512.22;;;10.14;100.00
20455;BME280;10386;54.314;10.022;2023-04-16T11:17:46;102502.69;;;10.25;100.00
20455;BME280;10386;54.314;10.022;2023-04-16T11:20:21;102507.34;;;10.22;100.00
20455;BME280;10386;54.314;10.022;2023-04-16T11:22:56;102507.06;;;10.28;100.00
20455;BME280;10386;54.314;10.022;2023-04-16T11:25:25;102505.84;;;10.35;100.00
20455;BME280;10386;54.314;10.022;2023-04-16T11:27:52;102505.03;;;10.33;100.00
20455;BME280;10386;54.314;10.022;2023-04-16T11:30:30;102500.38;;;10.36;100.00
20455;BME280;10386;54.314;10.022;2023-04-16T11:32:57;102506.66;;;10.37;100.00
20455;BME280;10386;54.314;10.022;2023-04-16T11:35:24;102507.44;;;10.40;100.00
20455;BME280;10386;54.314;10.022;2023-04-16T11:37:54;102503.28;;;10.52;100.00
20455;BME280;10386;54.314;10.022;2023-04-16T11:40:22;102512.84;;;10.60;100.00
20455;BME280;10386;54.314;10.022;2023-04-16T11:42:49;102510.00;;;10.63;100.00
20455;BME280;10386;54.314;10.022;2023-04-16T11:45:16;102509.81;;;10.68;100.00
20455;BME280;10386;54.314;10.022;2023-04-16T11:47:49;102504.16;;;10.72;100.00
20455;BME280;10386;54.314;10.022;2023-04-16T11:50:26;102507.34;;;10.82;100.00
20455;BME280;10386;54.314;10.022;2023-04-16T11:53:02;102502.78;;;10.82;100.00
20455;BME280;10386;54.314;10.022;2023-04-16T11:55:29;102498.81;;;10.89;100.00
20455;BME280;10386;54.314;10.022;2023-04-16T11:57:56;102498.00;;;10.87;100.00
20455;BME280;10386;54.314;10.022;2023-04-16T12:00:23;102497.88;;;10.90;100.00
20455;BME280;10386;54.314;10.022;2023-04-16T12:02:52;102508.88;;;10.87;100.00
20455;BME280;10386;54.314;10.022;2023-04-16T12:05:36;102502.72;;;11.02;100.00
20455;BME280;10386;54.314;10.022;2023-04-16T12:08:09;102495.13;;;11.10;100.00
20455;BME280;10386;54.314;10.022;2023-04-16T12:10:51;102497.31;;;11.20;100.00
20455;BME280;10386;54.314;10.022;2023-04-16T12:13:18;102501.00;;;11.19;100.00
20455;BME280;10386;54.314;10.022;2023-04-16T12:15:50;102507.25;;;11.40;100.00
20455;BME280;10386;54.314;10.022;2023-04-16T12:18:19;102507.03;;;11.44;100.00
20455;BME280;10386;54.314;10.022;2023-04-16T12:20:48;102508.00;;;11.62;100.00
20455;BME280;10386;54.314;10.022;2023-04-16T12:23:26;102499.41;;;11.71;100.00
20455;BME280;10386;54.314;10.022;2023-04-16T12:25:54;102505.13;;;11.65;100.00
20455;BME280;10386;54.314;10.022;2023-04-16T12:28:28;102512.97;;;11.89;100.00
20455;BME280;10386;54.314;10.022;2023-04-16T12:30:55;102511.13;;;11.90;100.00
20455;BME280;10386;54.314;10.022;2023-04-16T12:33:22;102501.50;;;11.83;100.00
20455;BME280;10386;54.314;10.022;2023-04-16T12:35:49;102508.81;;;11.82;100.00
20455;BME280;10386;54.314;10.022;2023-04-16T12:38:16;102505.88;;;11.68;100.00
20455;BME280;10386;54.314;10.022;2023-04-16T12:40:43;102499.53;;;11.86;100.00
20455;BME280;10386;54.314;10.022;2023-04-16T12:43:11;102512.94;;;11.72;100.00